Time;durP1;ratioP1;P1;durP2;ratioP2;P2;SDS_P1;SDS_P2;PMS_P1;PMS_P2;Temp;Humidity;BMP_temperature;BMP_pressure;BME280_temperature;BME280_humidity;BME280_pressure;Samples;Min_cycle;Max_cycle;Signal;HPM_P1;HPM_P2
2023/05/29 00:00:28;;;;;;;7.88;4.72;;;17.00;49.30;;;19.63;37.66;97658.34;4982499;28;20038;-37
2023/05/29 00:02:56;;;;;;;8.20;5.15;;;16.90;49.40;;;19.61;37.45;97660.44;4980146;28;20051;-37
2023/05/29 00:05:24;;;;;;;8.88;5.00;;;17.00;49.40;;;19.60;37.50;97652.53;4982810;28;20046;-37
2023/05/29 00:07:52;;;;;;;6.60;5.68;;;16.90;49.30;;;19.58;37.50;97660.88;4982965;28;20050;-37
2023/05/29 00:10:19;;;;;;;7.47;5.47;;;16.90;49.30;;;19.54;37.54;97669.63;4983898;28;20043;-37
2023/05/29 00:12:47;;;;;;;6.68;4.28;;;16.80;49.40;;;19.50;37.61;97663.00;4980499;28;20042;-38
2023/05/29 00:15:14;;;;;;;7.38;4.85;;;16.80;50.00;;;19.44;37.73;97659.31;4981235;28;20414;-37
2023/05/29 00:17:43;;;;;;;10.07;5.38;;;16.70;49.80;;;19.39;37.82;97670.75;4984437;28;20038;-37
2023/05/29 00:20:11;;;;;;;7.50;4.93;;;16.70;49.90;;;19.35;37.90;97663.31;4984585;28;20069;-37
2023/05/29 00:22:40;;;;;;;7.13;4.50;;;16.60;50.10;;;19.30;37.96;97660.44;4973084;28;20054;-37
2023/05/29 00:25:08;;;;;;;6.55;3.67;;;16.50;50.30;;;19.26;38.12;97660.88;4981103;28;20057;-37
2023/05/29 00:27:36;;;;;;;10.68;5.30;;;16.50;50.40;;;19.23;38.08;97660.47;4982759;28;20041;-38
2023/05/29 00:30:05;;;;;;;8.10;4.63;;;16.40;50.50;;;19.18;38.19;97660.31;4984417;28;20053;-36
2023/05/29 00:32:33;;;;;;;7.53;4.60;;;16.40;50.50;;;19.17;38.14;97664.03;4963491;28;20062;-37
2023/05/29 00:35:00;;;;;;;6.55;4.57;;;16.40;50.40;;;19.13;38.32;97657.41;4979639;28;20042;-37
2023/05/29 00:37:28;;;;;;;8.77;5.20;;;16.40;50.70;;;19.10;38.34;97657.88;4981083;28;20051;-37
2023/05/29 00:39:56;;;;;;;6.97;4.57;;;16.40;50.80;;;19.07;38.49;97648.31;4983362;28;20053;-37
2023/05/29 00:42:24;;;;;;;7.20;4.70;;;16.30;50.90;;;19.03;38.48;97653.31;4982711;28;20053;-37
2023/05/29 00:44:52;;;;;;;8.85;4.07;;;16.30;51.10;;;18.99;38.52;97648.56;4979271;28;20054;-37
2023/05/29 00:47:20;;;;;;;7.63;4.68;;;16.20;51.00;;;18.94;38.70;97646.53;4979649;28;20127;-36
2023/05/29 00:49:51;;;;;;;8.73;5.00;;;16.20;51.30;;;18.89;38.79;97638.22;4982246;28;20046;-36
2023/05/29 00:52:19;;;;;;;5.28;4.05;;;16.10;51.70;;;18.87;38.99;97643.03;4965183;28;20065;-37
2023/05/29 00:54:47;;;;;;;9.30;4.03;;;16.10;51.70;;;18.82;38.88;97640.94;4960631;28;20047;-37
2023/05/29 00:57:17;;;;;;;7.40;4.25;;;16.00;51.60;;;18.79;38.76;97644.06;4979513;28;20046;-37
2023/05/29 00:59:46;;;;;;;7.45;5.07;;;16.00;51.40;;;18.77;38.81;97642.63;4972008;28;20074;-37
2023/05/29 01:02:16;;;;;;;7.25;4.35;;;16.10;51.50;;;18.76;38.93;97644.47;4980222;28;20054;-37
2023/05/29 01:04:45;;;;;;;7.32;4.40;;;16.00;51.50;;;18.70;39.10;97642.63;4979590;28;20042;-38
2023/05/29 01:07:13;;;;;;;7.28;4.38;;;16.00;51.80;;;18.67;38.98;97638.50;4978887;28;20054;-37
2023/05/29 01:09:42;;;;;;;9.40;4.43;;;15.90;51.80;;;18.66;38.97;97636.00;4982623;28;20045;-37
2023/05/29 01:12:38;;;;;;;6.50;3.92;;;15.90;51.70;;;18.64;38.96;97628.13;4982273;28;20050;-37
2023/05/29 01:15:28;;;;;;;5.88;3.67;;;15.90;53.20;;;18.63;38.84;97639.13;4979413;28;20059;-37
2023/05/29 01:18:25;;;;;;;6.38;4.25;;;15.90;52.80;;;18.57;39.22;97632.75;4958105;28;20054;-37
2023/05/29 01:21:14;;;;;;;6.47;4.35;;;15.80;53.20;;;18.54;39.26;97635.84;4957267;28;20053;-37
2023/05/29 01:24:31;;;;;;;5.75;3.88;;;15.80;52.60;;;18.49;39.05;97636.50;4967633;28;20047;-37
2023/05/29 01:27:03;;;;;;;7.30;4.20;;;15.70;53.10;;;18.46;39.28;97631.50;4945832;28;20051;-37
2023/05/29 01:29:34;;;;;;;7.35;4.25;;;15.70;52.60;;;18.39;39.38;97629.88;4980100;28;20046;-37
2023/05/29 01:32:03;;;;;;;5.57;4.15;;;15.60;52.70;;;18.34;39.51;97632.38;4981556;28;20122;-37
2023/05/29 01:34:30;;;;;;;9.43;4.43;;;15.60;52.60;;;18.30;39.74;97629.28;4964503;28;20054;-37
2023/05/29 01:36:58;;;;;;;9.40;4.55;;;15.50;52.80;;;18.28;39.59;97634.03;4978615;28;20093;-37
2023/05/29 01:39:26;;;;;;;8.32;4.60;;;15.50;53.00;;;18.23;39.78;97631.97;4979558;28;20054;-37
2023/05/29 01:41:55;;;;;;;6.55;4.40;;;15.50;53.20;;;18.21;39.90;97635.94;4983736;28;20047;-37
2023/05/29 01:44:24;;;;;;;6.72;4.43;;;15.50;53.20;;;18.21;39.73;97633.25;4965048;28;20046;-37
2023/05/29 01:46:52;;;;;;;5.65;3.85;;;15.50;53.10;;;18.19;39.79;97633.44;4959509;28;20514;-37
2023/05/29 01:49:23;;;;;;;9.52;4.40;;;15.40;53.10;;;18.17;39.62;97638.22;4959297;28;20046;-37
2023/05/29 01:51:51;;;;;;;6.05;4.10;;;15.40;53.10;;;18.14;39.83;97633.25;4962796;28;20506;-37
2023/05/29 01:54:18;;;;;;;6.45;4.30;;;15.40;53.20;;;18.12;40.08;97642.56;4946744;28;20451;-37
2023/05/29 01:56:47;;;;;;;10.65;5.20;;;15.30;53.30;;;18.06;40.17;97638.84;4951808;28;20051;-37
2023/05/29 01:59:16;;;;;;;10.02;4.63;;;15.30;53.70;;;18.06;40.13;97639.66;4943782;29;20423;-37
2023/05/29 02:01:44;;;;;;;6.50;3.88;;;15.30;53.50;;;18.06;40.22;97636.16;4963158;28;20423;-37
2023/05/29 02:04:11;;;;;;;9.88;4.63;;;15.30;53.70;;;18.00;40.31;97640.50;4967669;28;20039;-37
2023/05/29 02:06:39;;;;;;;8.65;4.70;;;15.30;53.80;;;17.99;40.28;97644.25;4964960;28;20073;-37
2023/05/29 02:09:07;;;;;;;7.35;4.50;;;15.30;53.60;;;17.97;40.27;97640.94;4962682;28;20051;-37
2023/05/29 02:11:35;;;;;;;10.90;4.45;;;15.30;53.60;;;17.96;40.29;97631.19;4964305;28;20056;-37
2023/05/29 02:14:04;;;;;;;7.55;4.38;;;15.30;53.80;;;17.94;40.29;97640.53;4965668;28;20047;-37
2023/05/29 02:16:33;;;;;;;6.72;4.25;;;15.30;53.60;;;17.98;40.51;97634.50;4980423;28;20051;-37
2023/05/29 02:19:02;;;;;;;4.97;3.75;;;15.30;53.60;;;17.94;40.25;97635.16;4964216;28;20403;-38
2023/05/29 02:21:29;;;;;;;7.55;5.28;;;15.20;53.50;;;17.93;40.44;97628.09;4947197;28;20051;-38
2023/05/29 02:23:57;;;;;;;6.40;4.05;;;15.20;53.50;;;17.94;40.33;97630.56;4965641;28;20058;-36
2023/05/29 02:26:25;;;;;;;6.75;4.32;;;15.20;53.40;;;17.92;40.28;97632.66;4964934;28;20423;-36
2023/05/29 02:28:53;;;;;;;6.95;4.70;;;15.20;53.50;;;17.87;40.41;97627.91;4963959;28;20051;-37
2023/05/29 02:31:20;;;;;;;11.05;4.70;;;15.10;53.80;;;17.81;40.24;97627.84;4961784;28;20062;-37
2023/05/29 02:33:48;;;;;;;7.90;4.53;;;15.00;54.00;;;17.75;40.48;97632.22;4956143;28;20035;-37
2023/05/29 02:36:16;;;;;;;8.73;4.10;;;14.90;54.20;;;17.72;40.68;97624.56;4963196;28;20447;-36
2023/05/29 02:38:44;;;;;;;6.75;4.15;;;14.90;54.50;;;17.70;40.78;97630.16;4966491;28;20035;-37
2023/05/29 02:41:12;;;;;;;6.93;4.50;;;14.90;54.50;;;17.66;40.61;97625.38;4966878;28;20054;-37
2023/05/29 02:43:39;;;;;;;8.38;4.15;;;14.90;54.50;;;17.64;40.89;97619.34;4963082;28;20053;-37
2023/05/29 02:46:07;;;;;;;7.45;4.93;;;14.80;54.60;;;17.60;40.81;97635.13;4962229;28;20152;-37
2023/05/29 02:48:35;;;;;;;8.38;3.90;;;14.80;54.70;;;17.56;40.89;97623.09;4964915;28;20051;-37
2023/05/29 02:51:02;;;;;;;7.47;4.28;;;14.70;54.90;;;17.52;41.03;97613.78;4965591;28;20066;-36
2023/05/29 02:53:31;;;;;;;5.20;3.70;;;14.70;55.00;;;17.49;40.90;97611.50;4965731;28;20050;-38
2023/05/29 02:55:58;;;;;;;5.47;3.80;;;14.70;55.20;;;17.47;40.84;97614.41;4962196;28;20499;-38
2023/05/29 02:58:27;;;;;;;7.57;4.13;;;14.70;54.90;;;17.45;40.99;97613.78;4978163;28;20058;-37
2023/05/29 03:00:55;;;;;;;5.65;3.97;;;14.70;55.10;;;17.41;41.21;97614.38;4965177;28;20051;-37
2023/05/29 03:03:22;;;;;;;6.10;3.92;;;14.60;55.10;;;17.39;41.16;97621.81;4964745;28;20077;-37
2023/05/29 03:05:50;;;;;;;9.40;4.65;;;14.60;55.10;;;17.35;41.14;97624.13;4955267;28;20039;-38
2023/05/29 03:08:19;;;;;;;6.10;4.15;;;14.60;55.00;;;17.31;41.31;97625.53;4961580;28;20066;-36
2023/05/29 03:10:47;;;;;;;7.03;4.05;;;14.50;55.50;;;17.27;41.46;97625.16;4952754;28;20054;-38
2023/05/29 03:13:15;;;;;;;5.05;3.85;;;14.50;55.70;;;17.25;41.60;97626.38;4962128;28;20054;-37
2023/05/29 03:15:56;;;;;;;6.72;4.18;;;14.40;55.70;;;17.23;41.40;97625.75;4954492;28;20058;-37
2023/05/29 03:18:24;;;;;;;7.72;4.28;;;14.40;55.60;;;17.22;41.32;97627.59;4961269;28;20062;-37
2023/05/29 03:20:55;;;;;;;6.07;4.13;;;14.40;55.70;;;17.20;41.31;97624.28;4966331;28;20046;-38
2023/05/29 03:23:25;;;;;;;6.63;4.40;;;14.40;56.00;;;17.19;41.45;97617.25;4964909;28;20051;-37
2023/05/29 03:25:54;;;;;;;11.60;4.15;;;14.30;55.90;;;17.17;41.50;97619.31;4961471;28;20423;-37
2023/05/29 03:28:22;;;;;;;4.78;3.78;;;14.40;56.70;;;17.13;41.46;97618.88;4960598;28;20055;-37
2023/05/29 03:30:51;;;;;;;6.38;4.60;;;14.30;56.00;;;17.09;41.55;97619.50;4953245;28;20074;-36
2023/05/29 03:33:21;;;;;;;6.65;3.88;;;14.30;55.90;;;17.09;41.74;97619.50;4961530;28;20407;-37
2023/05/29 03:36:05;;;;;;;6.90;4.35;;;14.30;55.90;;;17.10;41.62;97613.94;4971997;28;20054;-37
2023/05/29 03:38:33;;;;;;;5.90;3.78;;;14.30;55.80;;;17.07;41.60;97619.69;4961882;28;20047;-37
2023/05/29 03:41:00;;;;;;;6.97;4.03;;;14.30;55.90;;;17.06;41.56;97626.13;4948839;28;20050;-37
2023/05/29 03:43:31;;;;;;;4.30;3.65;;;14.30;56.10;;;17.03;41.90;97626.53;4964379;28;20496;-37
2023/05/29 03:45:58;;;;;;;6.97;4.00;;;14.20;56.10;;;17.02;41.63;97629.41;4960646;28;20059;-37
2023/05/29 03:48:29;;;;;;;6.07;4.10;;;14.30;56.20;;;17.02;41.75;97621.34;4961145;28;20447;-37
2023/05/29 03:50:57;;;;;;;6.18;3.58;;;14.30;56.30;;;17.00;41.86;97624.25;4963976;28;20050;-37
2023/05/29 03:53:31;;;;;;;;;;;14.30;56.30;;;17.09;41.37;97631.09;4971756;28;20066;-37
2023/05/29 03:55:59;;;;;;;7.28;4.72;;;14.30;57.80;;;17.06;41.67;97634.19;4974747;28;20366;-37
2023/05/29 03:58:27;;;;;;;8.48;3.88;;;14.30;56.30;;;17.00;41.96;97634.16;4960639;28;20039;-37
2023/05/29 04:00:55;;;;;;;8.38;3.80;;;14.20;56.50;;;16.99;41.95;97637.91;4980009;28;20218;-37
2023/05/29 04:03:24;;;;;;;6.68;4.45;;;14.20;56.40;;;16.98;41.85;97647.81;4964057;28;20053;-37
2023/05/29 04:05:52;;;;;;;6.78;4.18;;;14.20;56.50;;;16.99;41.92;97640.59;4948703;28;20399;-37
2023/05/29 04:08:20;;;;;;;7.00;3.58;;;14.20;56.50;;;16.99;42.04;97645.97;4963707;28;20422;-37
2023/05/29 04:10:47;;;;;;;6.53;4.03;;;14.30;56.70;;;16.98;42.17;97645.13;4962427;28;20047;-37
2023/05/29 04:13:15;;;;;;;8.18;4.43;;;14.20;56.50;;;16.98;42.16;97644.28;4961771;28;20422;-37
2023/05/29 04:15:42;;;;;;;6.55;3.90;;;14.20;56.50;;;17.02;42.07;97650.94;4962271;28;20427;-37
2023/05/29 04:18:10;;;;;;;7.35;3.50;;;14.30;56.40;;;17.06;42.20;97657.56;4963909;28;20062;-37
2023/05/29 04:20:38;;;;;;;8.05;3.55;;;14.40;56.40;;;17.10;41.93;97656.16;4946535;28;20051;-37
2023/05/29 04:23:05;;;;;;;6.70;3.88;;;14.40;56.30;;;17.12;42.04;97660.28;4960296;28;20051;-38
2023/05/29 04:25:34;;;;;;;7.50;3.35;;;14.50;56.30;;;17.13;42.30;97667.31;4960553;28;20051;-37
2023/05/29 04:28:02;;;;;;;7.80;3.90;;;14.50;56.40;;;17.15;42.06;97677.03;4971665;28;20077;-37
2023/05/29 04:30:32;;;;;;;7.32;4.30;;;14.50;56.20;;;17.18;42.16;97673.97;4979233;28;20557;-37
2023/05/29 04:33:02;;;;;;;6.93;4.40;;;14.50;56.30;;;17.20;42.10;97680.78;4962107;28;20055;-37
2023/05/29 04:35:31;;;;;;;6.80;4.03;;;14.50;56.00;;;17.22;42.09;97683.28;4961233;28;20419;-37
2023/05/29 04:38:04;;;;;;;8.27;4.03;;;14.50;56.20;;;17.24;41.79;97689.28;4963584;28;20047;-37
2023/05/29 04:40:33;;;;;;;8.65;4.15;;;14.50;55.90;;;17.26;41.88;97685.34;4962386;28;20046;-37
2023/05/29 04:43:05;;;;;;;6.50;4.18;;;14.60;55.70;;;17.31;41.72;97688.28;4976181;28;20058;-37
2023/05/29 04:45:51;;;;;;;5.47;3.85;;;14.60;55.60;;;17.36;41.63;97679.59;4963082;28;20337;-37
2023/05/29 04:48:18;;;;;;;8.75;3.97;;;14.60;55.60;;;17.36;41.87;97690.34;4946977;28;20051;-37
2023/05/29 04:50:48;;;;;;;7.00;3.95;;;14.60;55.50;;;17.38;41.82;97692.84;4960513;28;20043;-37
2023/05/29 04:53:16;;;;;;;5.72;3.65;;;14.70;55.40;;;17.41;41.32;97687.88;4944649;29;20054;-37
2023/05/29 04:55:43;;;;;;;5.57;3.50;;;14.70;55.20;;;17.41;41.43;97692.41;4961285;28;20054;-37
2023/05/29 04:58:12;;;;;;;7.70;3.90;;;14.70;55.30;;;17.43;41.33;97683.13;4964604;28;20042;-37
2023/05/29 05:00:41;;;;;;;5.53;3.22;;;14.70;55.30;;;17.47;41.44;97697.81;4961303;28;20039;-37
2023/05/29 05:03:10;;;;;;;5.93;3.88;;;14.80;55.10;;;17.51;41.50;97690.19;4960206;28;20047;-37
2023/05/29 05:05:38;;;;;;;6.72;3.63;;;14.90;55.10;;;17.54;41.23;97700.53;4960737;28;20427;-37
2023/05/29 05:08:07;;;;;;;5.20;3.28;;;14.90;55.60;;;17.59;41.38;97698.06;4963363;28;20297;-37
2023/05/29 05:10:35;;;;;;;5.25;4.20;;;14.90;54.90;;;17.65;41.37;97710.69;4962545;28;20109;-37
2023/05/29 05:13:03;;;;;;;5.50;3.72;;;15.00;54.60;;;17.68;41.17;97698.66;4959586;28;20070;-37
2023/05/29 05:15:31;;;;;;;7.45;4.43;;;15.10;54.60;;;17.71;40.93;97707.16;4959342;28;20048;-37
2023/05/29 05:17:59;;;;;;;7.35;3.72;;;15.10;54.20;;;17.76;41.04;97709.25;4962856;28;20422;-37
2023/05/29 05:20:27;;;;;;;7.53;3.60;;;15.10;54.20;;;17.79;41.15;97697.25;4963599;28;20057;-37
2023/05/29 05:22:59;;;;;;;5.07;3.47;;;15.10;54.50;;;17.81;41.35;97698.69;4959495;28;20062;-37
2023/05/29 05:25:27;;;;;;;6.05;3.38;;;15.20;54.50;;;17.87;41.24;97699.75;4959968;28;20534;-37
2023/05/29 05:27:55;;;;;;;7.57;3.95;;;15.30;54.30;;;17.84;41.08;97703.72;4959128;28;20055;-37
2023/05/29 05:30:24;;;;;;;6.35;3.53;;;15.20;54.40;;;17.88;41.04;97701.44;4975300;28;20051;-37
2023/05/29 05:32:52;;;;;;;7.00;4.32;;;15.30;54.40;;;17.89;41.09;97703.06;4978030;28;20565;-37
2023/05/29 05:35:20;;;;;;;8.50;4.20;;;15.20;54.20;;;17.89;40.98;97712.00;4964427;28;20058;-37
2023/05/29 05:37:47;;;;;;;6.13;4.47;;;15.30;54.20;;;17.91;41.08;97714.47;4964215;28;20047;-37
2023/05/29 05:40:15;;;;;;;10.75;4.28;;;15.30;54.30;;;17.92;41.04;97718.84;4963381;28;20407;-37
2023/05/29 05:42:51;;;;;;;4.75;3.30;;;15.30;54.60;;;17.93;41.29;97725.03;4965244;28;20519;-37
2023/05/29 05:45:25;;;;;;;5.93;3.47;;;15.30;55.00;;;17.87;41.79;97730.25;4982667;28;20053;-37
2023/05/29 05:47:53;;;;;;;5.65;3.83;;;15.20;55.50;;;17.86;41.86;97728.56;4980029;28;20538;-37
2023/05/29 05:50:24;;;;;;;6.18;3.50;;;15.20;55.60;;;17.87;41.88;97727.53;4979003;28;20078;-37
2023/05/29 05:52:52;;;;;;;5.28;3.58;;;15.20;56.10;;;17.87;41.82;97737.47;4965105;28;20127;-37
2023/05/29 05:55:20;;;;;;;7.20;4.40;;;15.20;55.80;;;17.80;41.83;97733.94;4966146;28;20430;-36
2023/05/29 05:57:48;;;;;;;9.57;4.80;;;15.10;55.60;;;17.77;41.80;97740.53;4963947;28;20061;-37
2023/05/29 06:00:17;;;;;;;5.70;3.70;;;15.10;55.60;;;17.79;41.86;97743.84;4962639;28;20510;-37
2023/05/29 06:02:44;;;;;;;7.50;3.90;;;15.10;56.10;;;17.78;42.22;97758.34;4965585;28;20050;-36
2023/05/29 06:05:21;;;;;;;4.32;3.03;;;15.10;56.60;;;17.74;42.17;97750.88;4966532;28;20051;-36
2023/05/29 06:07:48;;;;;;;7.38;4.28;;;15.00;56.20;;;17.77;42.08;97755.84;4964087;28;20054;-36
2023/05/29 06:10:16;;;;;;;6.25;4.07;;;15.10;56.60;;;17.81;42.06;97757.09;4978843;28;20352;-36
2023/05/29 06:12:44;;;;;;;8.95;4.07;;;15.10;56.10;;;17.83;42.10;97757.72;4963588;28;20066;-36
2023/05/29 06:15:20;;;;;;;7.65;3.97;;;15.20;56.60;;;17.90;42.18;97764.00;4982007;28;20051;-36
2023/05/29 06:17:48;;;;;;;6.88;4.18;;;15.30;56.10;;;17.97;42.31;97769.38;4964240;28;20043;-36
2023/05/29 06:20:19;;;;;;;6.97;3.88;;;15.40;56.80;;;18.04;42.26;97776.44;4963741;28;20043;-37
2023/05/29 06:22:50;;;;;;;6.30;4.35;;;15.50;56.20;;;18.02;42.30;97761.53;4965133;28;20062;-37
2023/05/29 06:25:19;;;;;;;6.47;4.20;;;15.40;56.20;;;18.09;42.07;97762.38;4966722;28;20050;-37
2023/05/29 06:27:47;;;;;;;6.53;4.25;;;15.50;56.50;;;18.07;42.53;97772.53;4964776;28;20058;-36
2023/05/29 06:30:16;;;;;;;6.57;4.05;;;15.40;56.50;;;18.06;42.43;97766.28;4964403;28;20046;-37
2023/05/29 06:32:44;;;;;;;7.45;3.67;;;15.50;56.40;;;18.14;42.29;97772.50;4961729;28;20131;-36
2023/05/29 06:35:12;;;;;;;6.13;3.75;;;15.60;56.10;;;18.18;42.63;97779.97;4962239;28;20058;-36
2023/05/29 06:37:40;;;;;;;9.18;4.43;;;15.60;56.60;;;18.21;42.69;97784.13;4961592;28;20053;-36
2023/05/29 06:40:08;;;;;;;8.27;3.97;;;15.70;56.50;;;18.26;42.46;97784.31;4960426;28;20427;-36
2023/05/29 06:42:35;;;;;;;5.38;3.47;;;15.80;56.40;;;18.28;42.61;97790.31;4977050;28;20055;-37
2023/05/29 06:45:13;;;;;;;5.35;4.15;;;15.80;56.70;;;18.33;42.48;97792.41;4946311;29;20054;-37
2023/05/29 06:47:45;;;;;;;6.90;4.18;;;15.80;56.50;;;18.34;42.47;97784.13;4946097;28;20067;-37
2023/05/29 06:50:14;;;;;;;7.10;4.35;;;15.80;56.50;;;18.32;42.67;97790.75;4965477;28;20407;-37
2023/05/29 06:52:43;;;;;;;7.78;4.22;;;15.70;56.80;;;18.33;42.69;97798.63;4963604;28;20054;-37
2023/05/29 06:55:26;;;;;;;5.60;3.90;;;15.70;57.00;;;18.42;42.53;97796.56;4959651;28;20526;-37
2023/05/29 06:57:56;;;;;;;7.90;4.25;;;15.80;56.60;;;18.44;42.47;97798.00;4963605;28;20065;-37
2023/05/29 07:00:27;;;;;;;8.13;4.80;;;15.90;56.60;;;18.50;42.59;97799.88;4963528;28;20065;-37
2023/05/29 07:03:12;;;;;;;6.82;4.43;;;16.00;56.50;;;18.60;42.58;97806.72;4960971;28;20051;-37
2023/05/29 07:05:40;;;;;;;7.55;4.32;;;16.10;56.40;;;18.63;42.76;97804.44;4977363;28;20054;-37
2023/05/29 07:08:08;;;;;;;7.35;4.38;;;16.20;56.70;;;18.66;42.66;97801.31;4963569;28;20046;-35
2023/05/29 07:10:35;;;;;;;6.28;4.20;;;16.20;56.40;;;18.75;42.70;97798.41;4965175;28;20418;-36
2023/05/29 07:13:03;;;;;;;8.77;5.32;;;16.30;56.90;;;18.79;42.70;97811.25;4953876;28;20047;-36
2023/05/29 07:15:31;;;;;;;8.02;4.45;;;16.20;56.80;;;18.83;42.47;97799.03;4961061;28;20047;-36
2023/05/29 07:17:59;;;;;;;6.70;4.20;;;16.30;57.20;;;18.91;42.35;97802.56;4963432;28;20077;-36
2023/05/29 07:20:27;;;;;;;5.80;3.80;;;16.40;56.20;;;18.98;42.10;97797.97;4963343;28;20039;-36
2023/05/29 07:22:55;;;;;;;6.05;3.75;;;16.50;55.80;;;18.96;41.91;97800.03;4946431;28;20427;-36
2023/05/29 07:25:23;;;;;;;5.82;3.13;;;16.50;55.40;;;19.03;42.08;97800.88;4960296;28;20055;-36
2023/05/29 07:27:51;;;;;;;7.20;3.50;;;16.50;55.50;;;19.06;41.80;97805.84;4978247;28;20055;-36
2023/05/29 07:30:19;;;;;;;4.63;3.40;;;16.60;55.00;;;19.14;41.96;97804.78;4963527;28;20070;-43
2023/05/29 07:32:48;;;;;;;5.68;4.07;;;16.60;55.50;;;19.20;41.65;97812.84;4961681;28;20404;-36
2023/05/29 07:35:16;;;;;;;6.22;4.07;;;16.70;54.90;;;19.27;41.45;97813.66;4960551;28;20074;-36
2023/05/29 07:37:43;;;;;;;8.75;4.60;;;16.80;54.50;;;19.26;41.33;97812.00;4961451;28;20507;-36
2023/05/29 07:40:15;;;;;;;5.97;3.17;;;16.80;54.20;;;19.35;41.57;97806.34;4963881;28;20057;-36
2023/05/29 07:43:08;;;;;;;4.63;3.55;;;16.90;54.70;;;19.48;41.31;97804.47;4960107;28;20062;-36
2023/05/29 07:45:44;;;;;;;6.00;3.88;;;17.00;54.30;;;19.56;41.17;97806.09;4946286;28;20054;-37
2023/05/29 07:48:12;;;;;;;4.70;3.38;;;17.00;54.20;;;19.60;40.70;97806.47;4962981;28;20537;-37
2023/05/29 07:50:41;;;;;;;8.57;3.90;;;17.10;53.40;;;19.60;40.77;97804.63;4962766;28;20050;-37
2023/05/29 07:53:10;;;;;;;5.95;3.75;;;17.20;53.20;;;19.64;40.81;97805.84;4975907;28;20063;-37
2023/05/29 07:55:39;;;;;;;8.30;3.58;;;17.20;53.30;;;19.72;40.43;97810.19;4959718;28;20368;-37
2023/05/29 07:58:09;;;;;;;5.80;3.70;;;17.20;52.90;;;19.80;40.26;97806.41;4968244;28;20058;-37
2023/05/29 08:00:40;;;;;;;8.15;4.28;;;17.40;52.30;;;19.88;40.26;97808.84;4958491;28;20043;-36
2023/05/29 08:03:08;;;;;;;9.77;4.30;;;17.50;52.70;;;19.95;39.91;97803.41;4963055;28;20529;-36
2023/05/29 08:06:05;;;;;;;4.70;3.50;;;17.50;52.20;;;20.04;40.08;97807.50;4960900;28;20539;-37
2023/05/29 08:08:34;;;;;;;6.00;3.50;;;17.60;52.30;;;20.09;39.55;97801.47;4959249;28;20043;-37
2023/05/29 08:11:02;;;;;;;5.75;4.10;;;17.70;52.00;;;20.18;39.58;97802.81;4962386;28;20066;-37
2023/05/29 08:13:30;;;;;;;6.35;3.63;;;17.70;51.40;;;20.29;39.45;97812.94;4962873;28;20073;-37
2023/05/29 08:15:58;;;;;;;8.57;4.03;;;17.90;51.40;;;20.40;39.23;97806.00;4977704;28;20054;-37
2023/05/29 08:18:26;;;;;;;5.97;3.90;;;18.00;51.20;;;20.49;39.02;97811.97;4961656;28;20047;-37
2023/05/29 08:20:54;;;;;;;5.93;3.72;;;18.10;51.00;;;20.55;39.72;97806.50;4963424;28;20046;-37
2023/05/29 08:23:22;;;;;;;5.45;4.20;;;18.20;51.70;;;20.63;38.86;97811.66;4965161;28;20047;-37
2023/05/29 08:25:50;;;;;;;7.18;3.90;;;18.20;50.90;;;20.74;38.78;97807.38;4962157;28;20050;-37
2023/05/29 08:28:18;;;;;;;4.57;3.70;;;18.30;50.60;;;20.81;38.55;97815.47;4961646;28;20435;-37
2023/05/29 08:30:46;;;;;;;9.00;3.70;;;18.40;50.20;;;20.82;38.50;97809.81;4961985;28;20487;-37
2023/05/29 08:33:13;;;;;;;6.80;4.03;;;18.50;50.20;;;20.91;38.47;97817.66;4961578;28;20051;-37
2023/05/29 08:35:41;;;;;;;7.22;4.35;;;18.60;50.20;;;20.95;38.61;97810.75;4961791;28;20491;-37
2023/05/29 08:38:08;;;;;;;8.07;4.72;;;18.60;49.90;;;21.01;38.74;97815.25;4953607;28;20055;-37
2023/05/29 08:40:36;;;;;;;11.60;4.50;;;18.60;50.00;;;21.08;38.84;97809.78;4961316;28;20530;-37
2023/05/29 08:43:15;;;;;;;5.68;3.67;;;18.70;50.30;;;21.15;38.54;97805.94;4964369;28;20046;-37
2023/05/29 08:45:44;;;;;;;5.68;3.75;;;18.70;50.00;;;21.22;38.54;97809.38;4963741;28;20047;-37
2023/05/29 08:48:12;;;;;;;5.75;4.03;;;18.80;50.10;;;21.32;38.08;97808.88;4961161;28;20039;-37
2023/05/29 08:50:48;;;;;;;6.40;4.20;;;18.90;49.70;;;21.41;38.53;97812.09;4959853;28;20050;-37
2023/05/29 08:53:16;;;;;;;8.15;4.13;;;19.00;49.60;;;21.41;37.85;97806.69;4961487;28;20046;-37
2023/05/29 08:55:46;;;;;;;6.85;4.35;;;19.00;49.70;;;21.35;38.92;97821.16;4961402;28;20059;-37
2023/05/29 08:58:15;;;;;;;10.27;4.90;;;18.90;50.20;;;21.44;38.44;97814.38;4964691;28;20054;-37
2023/05/29 09:00:46;;;;;;;7.55;4.47;;;19.00;50.20;;;21.50;38.56;97821.63;4964291;28;20043;-37
2023/05/29 09:03:14;;;;;;;7.60;4.22;;;19.20;49.80;;;21.62;38.38;97814.38;4968037;28;20051;-37
2023/05/29 09:05:43;;;;;;;9.15;3.80;;;19.30;49.70;;;21.66;38.24;97813.94;4961366;28;20046;-37
2023/05/29 09:08:12;;;;;;;7.88;4.57;;;19.30;49.40;;;21.64;38.12;97819.56;4953290;28;20054;-37
2023/05/29 09:10:43;;;;;;;7.95;3.70;;;19.30;49.40;;;21.73;38.18;97829.03;4961114;28;20491;-37
2023/05/29 09:13:13;;;;;;;7.93;4.88;;;19.40;49.30;;;21.81;37.71;97826.00;4956839;28;20416;-37
2023/05/29 09:15:42;;;;;;;6.05;4.00;;;19.40;48.40;;;21.87;37.43;97826.97;4963692;28;20050;-37
2023/05/29 09:18:11;;;;;;;7.95;4.85;;;19.50;48.80;;;21.94;38.06;97822.28;4957598;28;20035;-37
2023/05/29 09:20:39;;;;;;;7.05;4.15;;;19.60;49.30;;;22.01;37.90;97817.59;4963760;28;20046;-37
2023/05/29 09:23:09;;;;;;;5.50;3.53;;;19.70;49.10;;;22.13;37.54;97819.53;4968040;28;20042;-37
2023/05/29 09:25:45;;;;;;;6.68;3.67;;;19.80;49.00;;;22.22;37.87;97812.72;4968404;28;20065;-37
2023/05/29 09:28:14;;;;;;;4.93;3.90;;;19.90;48.80;;;22.31;37.39;97824.88;4953125;28;20043;-37
2023/05/29 09:30:44;;;;;;;6.13;4.53;;;19.90;48.50;;;22.30;37.33;97827.84;4967964;28;20522;-37
2023/05/29 09:33:13;;;;;;;10.55;5.13;;;19.90;48.50;;;22.32;37.80;97829.28;4968388;28;20050;-37
2023/05/29 09:35:47;;;;;;;6.60;4.10;;;20.00;48.70;;;22.40;37.44;97836.25;4967135;28;20042;-37
2023/05/29 09:38:19;;;;;;;7.05;4.55;;;20.10;48.30;;;22.47;36.97;97828.00;4964424;28;20043;-37
2023/05/29 09:40:49;;;;;;;5.10;4.03;;;20.20;47.60;;;22.48;36.95;97827.75;4965000;28;20283;-37
2023/05/29 09:43:19;;;;;;;6.43;4.03;;;20.20;46.70;;;22.48;37.15;97830.47;4968352;28;20042;-37
2023/05/29 09:45:49;;;;;;;8.27;4.60;;;20.20;47.90;;;22.55;37.29;97831.19;4967493;28;20039;-37
2023/05/29 09:48:22;;;;;;;6.65;4.45;;;20.20;47.90;;;22.66;36.76;97834.16;4964334;28;20051;-37
2023/05/29 09:50:50;;;;;;;8.75;4.15;;;20.30;47.80;;;22.77;36.88;97834.16;4964715;28;20051;-37
2023/05/29 09:53:25;;;;;;;6.65;4.38;;;20.40;48.90;;;22.90;36.95;97835.00;4967849;28;20046;-37
2023/05/29 09:55:55;;;;;;;6.10;4.53;;;20.50;47.90;;;22.98;36.65;97823.78;4966831;28;20047;-37
2023/05/29 09:58:24;;;;;;;8.63;4.13;;;20.60;47.60;;;23.08;36.64;97825.94;4963162;28;20543;-37
2023/05/29 10:00:53;;;;;;;6.00;4.38;;;20.70;47.90;;;23.17;37.00;97830.78;4964751;28;20043;-37
2023/05/29 10:03:23;;;;;;;7.13;4.63;;;20.70;48.10;;;23.29;36.38;97822.59;4967510;28;20054;-37
2023/05/29 10:05:57;;;;;;;7.72;4.22;;;20.80;47.50;;;23.41;36.06;97814.44;4967210;28;20046;-37
2023/05/29 10:08:27;;;;;;;4.95;3.92;;;20.90;47.00;;;23.53;35.45;97815.22;4963194;28;20423;-37
2023/05/29 10:11:09;;;;;;;5.97;4.38;;;21.00;46.30;;;23.61;35.55;97807.75;4964840;28;20050;-37
2023/05/29 10:13:41;;;;;;;6.15;4.10;;;21.10;46.20;;;23.72;35.44;97809.63;4967292;28;20054;-37
2023/05/29 10:16:14;;;;;;;6.15;4.50;;;21.10;45.70;;;23.77;35.35;97805.09;4964111;28;20070;-37
2023/05/29 10:18:49;;;;;;;6.80;4.18;;;21.20;45.50;;;23.86;34.85;97804.75;4966971;28;20050;-37
2023/05/29 10:21:18;;;;;;;7.07;4.57;;;21.30;45.50;;;23.91;35.02;97808.38;4956753;28;20047;-37
2023/05/29 10:23:50;;;;;;;5.93;4.85;;;21.40;45.60;;;23.98;34.89;97802.78;4962293;28;20035;-37
2023/05/29 10:26:30;;;;;;;7.90;4.28;;;21.40;45.30;;;24.07;34.97;97800.50;4959573;28;20055;-37
2023/05/29 10:29:45;;;;;;;8.25;4.10;;;21.60;44.70;;;24.14;34.92;97796.56;4962982;28;20043;-37
2023/05/29 10:32:43;;;;;;;5.47;4.43;;;21.60;44.10;;;24.18;34.35;97796.91;4962525;28;20039;-37